Upper Marlboro, MD (20774)

1:50 PM EST on December 28, 2014 (GMT -0500)
APRSWXNET Upper Marlboro MD US | Change Station
CLOSE
Current Station
Personal Weather Station
Location: Upper Marlboro, MD
Elevation: 196 ft
Nearby Weather Stations

Elev 196 ft 38.83 °N, 76.80 °W | Updated 44 minutes ago

Overcast
Overcast
58 °F
Feels Like 58 °F
N
0
Wind Variable Wind from NE
Gusts 0.0 mph

Today
High -- | Low -- °F
--% Chance of Precip.
Yesterday
High -- | Low -- °F
Precip. -- in
7:24 AM 4:52 PM
Waxing Crescent, 50% visible
Pressure 29.95 in
Visibility 10.0 miles
Clouds Few 11000 ft
Dew Point 44 °F
Humidity 59%
Rainfall 0.00 in
Snow Depth Not available.
UV 2 out of 12
Pollen .10 out of 12
Air Quality Not available.
Flu Activity Not available.
SPECI KADW 281844Z AUTO 29004KT 10SM -DZ FEW110 14/05 A2995 RMK AO2

More Conditions Fewer Conditions

Pressure 29.95 in
Visibility 10.0 miles
Clouds Few 11000 ft
Dew Point 44 °F
Humidity 59%
Rainfall 0.00 in
Snow Depth Not available.
UV 2 out of 12
Pollen .10 out of 12
Air Quality Not available.
Flu Activity Not available.
SPECI KADW 281844Z AUTO 29004KT 10SM -DZ FEW110 14/05 A2995 RMK AO2

More Conditions Fewer Conditions

10-Day Weather Forecast

Almanac

Astronomy

Dec. 28, 2014 Rise Set
Actual Time
Civil Twilight
Nautical Twilight
Astronomical Twilight
Moon
Length of Visible Light
Length of Day
Tomorrow will be .
, % of the Moon is Illuminated

Today's Extremes

State Highs State Lows

Community

WunderPhotos

Upload Photos

1,781,383 photos uploaded!

WunderBlogs® & News

Nearby

Air Quality

  Air Quality AQ Index Pollutant
Not available.

Snow Depth

Station Depth Elevation

Earthquake Activity

City Distance Mag. Time & Date
Minimum magnitude displayed is 2.5.

Coastal Water Temperatures

Place Temperature

Nearby Weather Stations